sensor_id;sensor_type;location;lat;lon;timestamp;P1;durP1;ratioP1;P2;durP2;ratioP2
28848;SDS011;15981;43.292;-2.888;2022-12-29T00:01:48;1.65;;;1.02;;
28848;SDS011;15981;43.292;-2.888;2022-12-29T00:04:14;1.88;;;1.10;;
28848;SDS011;15981;43.292;-2.888;2022-12-29T00:06:40;2.53;;;1.17;;
28848;SDS011;15981;43.292;-2.888;2022-12-29T00:09:06;2.45;;;1.05;;
28848;SDS011;15981;43.292;-2.888;2022-12-29T00:11:32;3.45;;;1.00;;
28848;SDS011;15981;43.292;-2.888;2022-12-29T00:13:58;1.38;;;0.90;;
28848;SDS011;15981;43.292;-2.888;2022-12-29T00:16:42;2.17;;;1.10;;
28848;SDS011;15981;43.292;-2.888;2022-12-29T00:19:09;1.70;;;0.93;;
28848;SDS011;15981;43.292;-2.888;2022-12-29T00:21:55;1.20;;;1.00;;
28848;SDS011;15981;43.292;-2.888;2022-12-29T00:24:39;2.20;;;0.80;;
28848;SDS011;15981;43.292;-2.888;2022-12-29T00:27:20;1.02;;;0.93;;
28848;SDS011;15981;43.292;-2.888;2022-12-29T00:30:25;1.00;;;0.90;;
28848;SDS011;15981;43.292;-2.888;2022-12-29T00:33:09;0.90;;;0.90;;
28848;SDS011;15981;43.292;-2.888;2022-12-29T00:35:54;0.90;;;0.88;;
28848;SDS011;15981;43.292;-2.888;2022-12-29T00:38:21;1.80;;;1.00;;
28848;SDS011;15981;43.292;-2.888;2022-12-29T00:41:06;0.82;;;0.80;;
28848;SDS011;15981;43.292;-2.888;2022-12-29T00:43:50;3.97;;;1.02;;
28848;SDS011;15981;43.292;-2.888;2022-12-29T00:46:32;0.65;;;0.65;;
28848;SDS011;15981;43.292;-2.888;2022-12-29T00:48:58;0.98;;;0.90;;
28848;SDS011;15981;43.292;-2.888;2022-12-29T00:51:42;1.98;;;0.77;;
28848;SDS011;15981;43.292;-2.888;2022-12-29T00:54:07;1.20;;;0.80;;
28848;SDS011;15981;43.292;-2.888;2022-12-29T00:56:33;0.85;;;0.85;;
28848;SDS011;15981;43.292;-2.888;2022-12-29T00:58:59;1.00;;;0.70;;
28848;SDS011;15981;43.292;-2.888;2022-12-29T01:01:25;0.90;;;0.70;;
28848;SDS011;15981;43.292;-2.888;2022-12-29T01:03:51;0.82;;;0.70;;
28848;SDS011;15981;43.292;-2.888;2022-12-29T01:06:17;2.45;;;0.80;;
28848;SDS011;15981;43.292;-2.888;2022-12-29T01:08:43;0.68;;;0.68;;
28848;SDS011;15981;43.292;-2.888;2022-12-29T01:11:10;0.88;;;0.60;;
28848;SDS011;15981;43.292;-2.888;2022-12-29T01:13:36;0.80;;;0.80;;
28848;SDS011;15981;43.292;-2.888;2022-12-29T01:16:04;1.25;;;0.80;;
28848;SDS011;15981;43.292;-2.888;2022-12-29T01:18:30;1.17;;;0.70;;
28848;SDS011;15981;43.292;-2.888;2022-12-29T01:21:13;0.75;;;0.60;;
28848;SDS011;15981;43.292;-2.888;2022-12-29T01:23:39;0.68;;;0.63;;
28848;SDS011;15981;43.292;-2.888;2022-12-29T01:26:08;1.33;;;0.55;;
28848;SDS011;15981;43.292;-2.888;2022-12-29T01:28:34;0.60;;;0.60;;
28848;SDS011;15981;43.292;-2.888;2022-12-29T01:31:00;1.90;;;0.70;;
28848;SDS011;15981;43.292;-2.888;2022-12-29T01:33:26;0.60;;;0.60;;
28848;SDS011;15981;43.292;-2.888;2022-12-29T01:35:52;1.38;;;0.60;;
28848;SDS011;15981;43.292;-2.888;2022-12-29T01:38:18;1.10;;;0.60;;
28848;SDS011;15981;43.292;-2.888;2022-12-29T01:40:44;1.02;;;0.50;;
28848;SDS011;15981;43.292;-2.888;2022-12-29T01:43:11;0.60;;;0.60;;
28848;SDS011;15981;43.292;-2.888;2022-12-29T01:45:38;1.40;;;0.70;;
28848;SDS011;15981;43.292;-2.888;2022-12-29T01:48:04;0.70;;;0.68;;
28848;SDS011;15981;43.292;-2.888;2022-12-29T01:50:35;0.65;;;0.60;;
28848;SDS011;15981;43.292;-2.888;2022-12-29T01:53:13;0.47;;;0.47;;
28848;SDS011;15981;43.292;-2.888;2022-12-29T01:55:42;0.60;;;0.60;;
28848;SDS011;15981;43.292;-2.888;2022-12-29T01:58:09;0.47;;;0.47;;
28848;SDS011;15981;43.292;-2.888;2022-12-29T02:00:36;0.52;;;0.50;;
28848;SDS011;15981;43.292;-2.888;2022-12-29T02:03:02;1.38;;;0.63;;
28848;SDS011;15981;43.292;-2.888;2022-12-29T02:08:01;0.43;;;0.40;;
28848;SDS011;15981;43.292;-2.888;2022-12-29T02:10:27;1.48;;;0.60;;
28848;SDS011;15981;43.292;-2.888;2022-12-29T02:12:55;0.40;;;0.40;;
28848;SDS011;15981;43.292;-2.888;2022-12-29T02:34:07;0.40;;;0.40;;
28848;SDS011;15981;43.292;-2.888;2022-12-29T02:36:40;0.50;;;0.43;;
28848;SDS011;15981;43.292;-2.888;2022-12-29T02:39:23;0.73;;;0.50;;
28848;SDS011;15981;43.292;-2.888;2022-12-29T02:47:10;1.05;;;0.55;;
28848;SDS011;15981;43.292;-2.888;2022-12-29T02:49:39;1.20;;;0.55;;
28848;SDS011;15981;43.292;-2.888;2022-12-29T02:52:16;0.47;;;0.40;;
28848;SDS011;15981;43.292;-2.888;2022-12-29T02:54:43;0.50;;;0.50;;
28848;SDS011;15981;43.292;-2.888;2022-12-29T02:59:35;0.40;;;0.40;;
28848;SDS011;15981;43.292;-2.888;2022-12-29T03:02:12;0.43;;;0.43;;
28848;SDS011;15981;43.292;-2.888;2022-12-29T03:07:29;0.40;;;0.40;;
28848;SDS011;15981;43.292;-2.888;2022-12-29T03:12:30;0.63;;;0.60;;
28848;SDS011;15981;43.292;-2.888;2022-12-29T03:15:20;0.70;;;0.50;;
28848;SDS011;15981;43.292;-2.888;2022-12-29T03:18:15;0.98;;;0.45;;
28848;SDS011;15981;43.292;-2.888;2022-12-29T03:20:52;0.65;;;0.40;;
28848;SDS011;15981;43.292;-2.888;2022-12-29T03:23:20;0.93;;;0.50;;
28848;SDS011;15981;43.292;-2.888;2022-12-29T03:25:47;1.42;;;0.50;;
28848;SDS011;15981;43.292;-2.888;2022-12-29T03:28:16;0.88;;;0.57;;
28848;SDS011;15981;43.292;-2.888;2022-12-29T03:30:44;0.57;;;0.57;;
28848;SDS011;15981;43.292;-2.888;2022-12-29T03:33:11;0.60;;;0.52;;
28848;SDS011;15981;43.292;-2.888;2022-12-29T03:35:38;1.35;;;0.70;;
28848;SDS011;15981;43.292;-2.888;2022-12-29T03:38:08;1.02;;;0.52;;
28848;SDS011;15981;43.292;-2.888;2022-12-29T03:40:36;0.70;;;0.60;;
28848;SDS011;15981;43.292;-2.888;2022-12-29T03:43:03;0.98;;;0.73;;
28848;SDS011;15981;43.292;-2.888;2022-12-29T03:45:30;1.13;;;0.55;;
28848;SDS011;15981;43.292;-2.888;2022-12-29T03:47:55;0.95;;;0.60;;
28848;SDS011;15981;43.292;-2.888;2022-12-29T03:50:21;0.55;;;0.55;;
28848;SDS011;15981;43.292;-2.888;2022-12-29T03:52:47;1.88;;;0.70;;
28848;SDS011;15981;43.292;-2.888;2022-12-29T03:55:12;1.50;;;0.60;;
28848;SDS011;15981;43.292;-2.888;2022-12-29T03:57:38;0.82;;;0.77;;
28848;SDS011;15981;43.292;-2.888;2022-12-29T04:00:04;0.85;;;0.50;;
28848;SDS011;15981;43.292;-2.888;2022-12-29T04:02:30;0.80;;;0.55;;
28848;SDS011;15981;43.292;-2.888;2022-12-29T04:04:56;1.08;;;0.70;;
28848;SDS011;15981;43.292;-2.888;2022-12-29T04:07:22;0.70;;;0.60;;
28848;SDS011;15981;43.292;-2.888;2022-12-29T04:09:48;1.65;;;0.70;;
28848;SDS011;15981;43.292;-2.888;2022-12-29T04:12:13;0.85;;;0.65;;
28848;SDS011;15981;43.292;-2.888;2022-12-29T04:14:40;1.70;;;0.68;;
28848;SDS011;15981;43.292;-2.888;2022-12-29T04:17:06;1.55;;;0.60;;
28848;SDS011;15981;43.292;-2.888;2022-12-29T04:19:31;0.70;;;0.68;;
28848;SDS011;15981;43.292;-2.888;2022-12-29T04:21:57;1.75;;;0.65;;
28848;SDS011;15981;43.292;-2.888;2022-12-29T04:24:23;1.05;;;0.65;;
28848;SDS011;15981;43.292;-2.888;2022-12-29T04:26:49;1.42;;;0.70;;
28848;SDS011;15981;43.292;-2.888;2022-12-29T04:29:15;3.15;;;0.60;;
28848;SDS011;15981;43.292;-2.888;2022-12-29T04:31:40;0.90;;;0.60;;
28848;SDS011;15981;43.292;-2.888;2022-12-29T04:34:06;1.08;;;0.77;;
28848;SDS011;15981;43.292;-2.888;2022-12-29T04:36:32;0.75;;;0.70;;
28848;SDS011;15981;43.292;-2.888;2022-12-29T04:38:58;0.77;;;0.77;;
28848;SDS011;15981;43.292;-2.888;2022-12-29T04:41:23;1.25;;;0.65;;
28848;SDS011;15981;43.292;-2.888;2022-12-29T04:43:49;0.50;;;0.43;;
28848;SDS011;15981;43.292;-2.888;2022-12-29T04:46:15;1.00;;;0.52;;
28848;SDS011;15981;43.292;-2.888;2022-12-29T04:48:41;1.20;;;0.80;;
28848;SDS011;15981;43.292;-2.888;2022-12-29T04:51:07;0.98;;;0.60;;
28848;SDS011;15981;43.292;-2.888;2022-12-29T04:53:32;1.08;;;0.60;;
28848;SDS011;15981;43.292;-2.888;2022-12-29T04:55:58;1.05;;;0.70;;
28848;SDS011;15981;43.292;-2.888;2022-12-29T04:58:24;1.73;;;0.90;;
28848;SDS011;15981;43.292;-2.888;2022-12-29T05:00:50;0.98;;;0.60;;
28848;SDS011;15981;43.292;-2.888;2022-12-29T05:03:16;0.68;;;0.50;;
28848;SDS011;15981;43.292;-2.888;2022-12-29T05:05:42;1.20;;;0.90;;
28848;SDS011;15981;43.292;-2.888;2022-12-29T05:08:08;0.95;;;0.50;;
28848;SDS011;15981;43.292;-2.888;2022-12-29T05:10:33;2.75;;;0.75;;
28848;SDS011;15981;43.292;-2.888;2022-12-29T05:12:59;0.70;;;0.70;;
28848;SDS011;15981;43.292;-2.888;2022-12-29T05:15:26;1.13;;;0.70;;
28848;SDS011;15981;43.292;-2.888;2022-12-29T05:17:52;0.65;;;0.60;;
28848;SDS011;15981;43.292;-2.888;2022-12-29T05:20:17;0.65;;;0.40;;
28848;SDS011;15981;43.292;-2.888;2022-12-29T05:22:43;1.00;;;0.80;;
28848;SDS011;15981;43.292;-2.888;2022-12-29T05:25:09;0.50;;;0.50;;
28848;SDS011;15981;43.292;-2.888;2022-12-29T05:27:35;0.93;;;0.70;;
28848;SDS011;15981;43.292;-2.888;2022-12-29T05:30:01;0.57;;;0.57;;
28848;SDS011;15981;43.292;-2.888;2022-12-29T05:32:26;0.70;;;0.70;;
28848;SDS011;15981;43.292;-2.888;2022-12-29T05:34:52;0.60;;;0.50;;
28848;SDS011;15981;43.292;-2.888;2022-12-29T05:37:18;1.00;;;0.77;;
28848;SDS011;15981;43.292;-2.888;2022-12-29T05:39:44;2.08;;;0.52;;
28848;SDS011;15981;43.292;-2.888;2022-12-29T05:42:09;1.02;;;0.60;;
28848;SDS011;15981;43.292;-2.888;2022-12-29T05:44:35;1.50;;;0.70;;
28848;SDS011;15981;43.292;-2.888;2022-12-29T05:47:01;0.60;;;0.60;;
28848;SDS011;15981;43.292;-2.888;2022-12-29T05:49:27;0.60;;;0.60;;
28848;SDS011;15981;43.292;-2.888;2022-12-29T05:51:52;0.90;;;0.60;;
28848;SDS011;15981;43.292;-2.888;2022-12-29T05:54:18;1.75;;;0.65;;
28848;SDS011;15981;43.292;-2.888;2022-12-29T05:56:44;1.40;;;0.70;;
28848;SDS011;15981;43.292;-2.888;2022-12-29T05:59:09;1.73;;;0.60;;
28848;SDS011;15981;43.292;-2.888;2022-12-29T06:01:35;1.02;;;0.63;;
28848;SDS011;15981;43.292;-2.888;2022-12-29T06:04:01;2.05;;;0.68;;
28848;SDS011;15981;43.292;-2.888;2022-12-29T06:06:27;0.68;;;0.60;;
28848;SDS011;15981;43.292;-2.888;2022-12-29T06:08:53;1.15;;;0.65;;
28848;SDS011;15981;43.292;-2.888;2022-12-29T06:11:18;2.00;;;0.65;;
28848;SDS011;15981;43.292;-2.888;2022-12-29T06:13:44;0.82;;;0.60;;
28848;SDS011;15981;43.292;-2.888;2022-12-29T06:16:10;1.02;;;0.70;;
28848;SDS011;15981;43.292;-2.888;2022-12-29T06:18:36;0.73;;;0.50;;
28848;SDS011;15981;43.292;-2.888;2022-12-29T06:21:02;0.60;;;0.60;;
28848;SDS011;15981;43.292;-2.888;2022-12-29T06:23:28;0.60;;;0.50;;
28848;SDS011;15981;43.292;-2.888;2022-12-29T06:25:54;1.17;;;0.90;;
28848;SDS011;15981;43.292;-2.888;2022-12-29T06:28:20;1.23;;;0.70;;
28848;SDS011;15981;43.292;-2.888;2022-12-29T06:30:46;1.17;;;0.68;;
28848;SDS011;15981;43.292;-2.888;2022-12-29T06:33:12;0.80;;;0.52;;
28848;SDS011;15981;43.292;-2.888;2022-12-29T06:35:38;0.70;;;0.70;;
28848;SDS011;15981;43.292;-2.888;2022-12-29T06:38:04;1.63;;;0.80;;
28848;SDS011;15981;43.292;-2.888;2022-12-29T06:40:29;1.13;;;0.60;;
28848;SDS011;15981;43.292;-2.888;2022-12-29T06:42:55;0.70;;;0.60;;
28848;SDS011;15981;43.292;-2.888;2022-12-29T06:45:21;0.68;;;0.50;;
28848;SDS011;15981;43.292;-2.888;2022-12-29T06:47:46;0.95;;;0.63;;
28848;SDS011;15981;43.292;-2.888;2022-12-29T06:50:12;0.82;;;0.60;;
28848;SDS011;15981;43.292;-2.888;2022-12-29T06:52:38;0.60;;;0.60;;
28848;SDS011;15981;43.292;-2.888;2022-12-29T06:55:04;0.93;;;0.70;;
28848;SDS011;15981;43.292;-2.888;2022-12-29T06:57:29;0.68;;;0.52;;
28848;SDS011;15981;43.292;-2.888;2022-12-29T06:59:55;0.85;;;0.75;;
28848;SDS011;15981;43.292;-2.888;2022-12-29T07:02:21;1.45;;;0.60;;
28848;SDS011;15981;43.292;-2.888;2022-12-29T07:04:47;1.58;;;0.70;;
28848;SDS011;15981;43.292;-2.888;2022-12-29T07:07:13;3.15;;;0.98;;
28848;SDS011;15981;43.292;-2.888;2022-12-29T07:09:38;1.15;;;0.70;;
28848;SDS011;15981;43.292;-2.888;2022-12-29T07:12:04;1.45;;;0.80;;
28848;SDS011;15981;43.292;-2.888;2022-12-29T07:14:30;2.05;;;0.82;;
28848;SDS011;15981;43.292;-2.888;2022-12-29T07:16:56;0.63;;;0.63;;
28848;SDS011;15981;43.292;-2.888;2022-12-29T07:19:21;0.60;;;0.60;;
28848;SDS011;15981;43.292;-2.888;2022-12-29T07:21:47;1.33;;;0.70;;
28848;SDS011;15981;43.292;-2.888;2022-12-29T07:24:13;2.47;;;0.90;;
28848;SDS011;15981;43.292;-2.888;2022-12-29T07:26:38;4.95;;;1.45;;
28848;SDS011;15981;43.292;-2.888;2022-12-29T07:29:04;0.65;;;0.63;;
28848;SDS011;15981;43.292;-2.888;2022-12-29T07:31:30;0.70;;;0.70;;
28848;SDS011;15981;43.292;-2.888;2022-12-29T07:33:56;1.08;;;0.77;;
28848;SDS011;15981;43.292;-2.888;2022-12-29T07:36:21;0.90;;;0.60;;
28848;SDS011;15981;43.292;-2.888;2022-12-29T07:38:47;1.60;;;0.70;;
28848;SDS011;15981;43.292;-2.888;2022-12-29T07:41:13;0.65;;;0.63;;
28848;SDS011;15981;43.292;-2.888;2022-12-29T07:43:39;0.70;;;0.60;;
28848;SDS011;15981;43.292;-2.888;2022-12-29T07:46:05;0.70;;;0.70;;
28848;SDS011;15981;43.292;-2.888;2022-12-29T07:48:30;0.95;;;0.77;;
28848;SDS011;15981;43.292;-2.888;2022-12-29T07:50:58;1.95;;;0.90;;
28848;SDS011;15981;43.292;-2.888;2022-12-29T07:53:24;0.80;;;0.70;;
28848;SDS011;15981;43.292;-2.888;2022-12-29T07:55:50;1.10;;;0.70;;
28848;SDS011;15981;43.292;-2.888;2022-12-29T07:58:16;2.13;;;0.82;;
28848;SDS011;15981;43.292;-2.888;2022-12-29T08:00:41;2.00;;;0.82;;
28848;SDS011;15981;43.292;-2.888;2022-12-29T08:03:07;1.17;;;0.90;;
28848;SDS011;15981;43.292;-2.888;2022-12-29T08:05:33;1.60;;;0.90;;
28848;SDS011;15981;43.292;-2.888;2022-12-29T08:07:59;2.08;;;1.40;;
28848;SDS011;15981;43.292;-2.888;2022-12-29T08:10:25;4.13;;;1.25;;
28848;SDS011;15981;43.292;-2.888;2022-12-29T08:12:51;3.50;;;1.50;;
28848;SDS011;15981;43.292;-2.888;2022-12-29T08:15:16;3.90;;;1.60;;
28848;SDS011;15981;43.292;-2.888;2022-12-29T08:17:42;6.45;;;1.92;;
28848;SDS011;15981;43.292;-2.888;2022-12-29T08:20:08;7.20;;;1.90;;
28848;SDS011;15981;43.292;-2.888;2022-12-29T08:22:34;5.63;;;1.88;;
28848;SDS011;15981;43.292;-2.888;2022-12-29T08:25:00;5.10;;;1.80;;
28848;SDS011;15981;43.292;-2.888;2022-12-29T08:27:26;3.78;;;1.30;;
28848;SDS011;15981;43.292;-2.888;2022-12-29T08:29:52;5.35;;;1.70;;
28848;SDS011;15981;43.292;-2.888;2022-12-29T08:32:18;6.00;;;1.80;;
28848;SDS011;15981;43.292;-2.888;2022-12-29T08:34:44;3.10;;;1.77;;
28848;SDS011;15981;43.292;-2.888;2022-12-29T08:37:10;7.20;;;1.92;;
28848;SDS011;15981;43.292;-2.888;2022-12-29T08:39:36;5.47;;;1.92;;
28848;SDS011;15981;43.292;-2.888;2022-12-29T08:42:01;6.70;;;1.80;;
28848;SDS011;15981;43.292;-2.888;2022-12-29T08:44:27;4.53;;;2.13;;
28848;SDS011;15981;43.292;-2.888;2022-12-29T08:46:53;6.82;;;2.10;;
28848;SDS011;15981;43.292;-2.888;2022-12-29T08:49:19;4.00;;;1.88;;
28848;SDS011;15981;43.292;-2.888;2022-12-29T08:51:45;4.65;;;1.85;;
28848;SDS011;15981;43.292;-2.888;2022-12-29T08:54:10;5.15;;;2.17;;
28848;SDS011;15981;43.292;-2.888;2022-12-29T08:56:36;4.80;;;1.58;;
28848;SDS011;15981;43.292;-2.888;2022-12-29T08:59:02;4.28;;;1.88;;
28848;SDS011;15981;43.292;-2.888;2022-12-29T09:01:28;8.10;;;2.00;;
28848;SDS011;15981;43.292;-2.888;2022-12-29T09:03:54;4.50;;;1.70;;
28848;SDS011;15981;43.292;-2.888;2022-12-29T09:06:20;6.93;;;1.90;;
28848;SDS011;15981;43.292;-2.888;2022-12-29T09:08:46;6.28;;;1.77;;
28848;SDS011;15981;43.292;-2.888;2022-12-29T09:11:19;6.80;;;1.88;;
28848;SDS011;15981;43.292;-2.888;2022-12-29T09:13:46;4.30;;;1.58;;
28848;SDS011;15981;43.292;-2.888;2022-12-29T09:16:12;5.57;;;1.80;;
28848;SDS011;15981;43.292;-2.888;2022-12-29T09:18:38;4.20;;;1.70;;
28848;SDS011;15981;43.292;-2.888;2022-12-29T09:21:04;7.00;;;2.03;;
28848;SDS011;15981;43.292;-2.888;2022-12-29T09:23:30;4.85;;;1.40;;
28848;SDS011;15981;43.292;-2.888;2022-12-29T09:25:56;3.50;;;1.60;;
28848;SDS011;15981;43.292;-2.888;2022-12-29T09:28:22;6.05;;;1.95;;
28848;SDS011;15981;43.292;-2.888;2022-12-29T09:30:48;5.70;;;1.60;;
28848;SDS011;15981;43.292;-2.888;2022-12-29T09:33:14;5.20;;;2.10;;
28848;SDS011;15981;43.292;-2.888;2022-12-29T09:35:44;4.95;;;2.38;;
28848;SDS011;15981;43.292;-2.888;2022-12-29T09:38:09;4.32;;;2.30;;
28848;SDS011;15981;43.292;-2.888;2022-12-29T09:40:35;6.97;;;3.58;;
28848;SDS011;15981;43.292;-2.888;2022-12-29T09:45:32;9.68;;;5.05;;
28848;SDS011;15981;43.292;-2.888;2022-12-29T09:48:03;10.13;;;6.45;;
28848;SDS011;15981;43.292;-2.888;2022-12-29T09:50:31;9.75;;;5.53;;
28848;SDS011;15981;43.292;-2.888;2022-12-29T09:55:43;16.02;;;8.20;;
28848;SDS011;15981;43.292;-2.888;2022-12-29T09:58:14;22.38;;;11.35;;
28848;SDS011;15981;43.292;-2.888;2022-12-29T10:00:49;23.50;;;11.27;;
28848;SDS011;15981;43.292;-2.888;2022-12-29T10:03:16;27.42;;;10.98;;
28848;SDS011;15981;43.292;-2.888;2022-12-29T10:05:53;22.65;;;10.25;;
28848;SDS011;15981;43.292;-2.888;2022-12-29T10:10:56;17.95;;;7.90;;
28848;SDS011;15981;43.292;-2.888;2022-12-29T10:13:35;17.38;;;6.95;;
28848;SDS011;15981;43.292;-2.888;2022-12-29T10:23:52;15.55;;;6.88;;
28848;SDS011;15981;43.292;-2.888;2022-12-29T10:26:22;14.68;;;6.15;;
28848;SDS011;15981;43.292;-2.888;2022-12-29T10:29:02;14.63;;;5.20;;
28848;SDS011;15981;43.292;-2.888;2022-12-29T10:34:19;22.10;;;9.35;;
28848;SDS011;15981;43.292;-2.888;2022-12-29T10:36:46;170.77;;;95.78;;
28848;SDS011;15981;43.292;-2.888;2022-12-29T10:39:15;460.50;;;292.92;;
28848;SDS011;15981;43.292;-2.888;2022-12-29T10:41:46;476.70;;;297.15;;
28848;SDS011;15981;43.292;-2.888;2022-12-29T10:44:14;409.67;;;254.43;;
28848;SDS011;15981;43.292;-2.888;2022-12-29T10:46:41;393.60;;;250.75;;
28848;SDS011;15981;43.292;-2.888;2022-12-29T10:49:12;347.55;;;209.93;;
28848;SDS011;15981;43.292;-2.888;2022-12-29T10:51:41;319.45;;;191.07;;
28848;SDS011;15981;43.292;-2.888;2022-12-29T10:56:50;256.15;;;145.85;;
28848;SDS011;15981;43.292;-2.888;2022-12-29T11:04:35;188.05;;;109.22;;
28848;SDS011;15981;43.292;-2.888;2022-12-29T11:07:03;173.00;;;101.05;;
28848;SDS011;15981;43.292;-2.888;2022-12-29T11:09:32;163.90;;;93.80;;
28848;SDS011;15981;43.292;-2.888;2022-12-29T11:11:59;150.52;;;86.72;;
28848;SDS011;15981;43.292;-2.888;2022-12-29T11:14:29;129.18;;;73.93;;
28848;SDS011;15981;43.292;-2.888;2022-12-29T11:16:59;119.65;;;69.63;;
28848;SDS011;15981;43.292;-2.888;2022-12-29T11:19:26;112.20;;;61.80;;
28848;SDS011;15981;43.292;-2.888;2022-12-29T11:21:52;98.32;;;55.78;;
28848;SDS011;15981;43.292;-2.888;2022-12-29T11:27:13;87.49;;;46.87;;
28848;SDS011;15981;43.292;-2.888;2022-12-29T11:29:41;78.05;;;42.83;;
28848;SDS011;15981;43.292;-2.888;2022-12-29T11:32:40;69.20;;;40.50;;
28848;SDS011;15981;43.292;-2.888;2022-12-29T11:34:58;64.18;;;35.13;;
28848;SDS011;15981;43.292;-2.888;2022-12-29T11:37:37;56.25;;;31.55;;
28848;SDS011;15981;43.292;-2.888;2022-12-29T11:40:17;50.38;;;28.50;;
28848;SDS011;15981;43.292;-2.888;2022-12-29T11:42:57;53.03;;;28.15;;
28848;SDS011;15981;43.292;-2.888;2022-12-29T11:45:27;46.72;;;27.65;;
28848;SDS011;15981;43.292;-2.888;2022-12-29T11:47:55;45.10;;;25.50;;
28848;SDS011;15981;43.292;-2.888;2022-12-29T11:50:22;47.88;;;25.52;;
28848;SDS011;15981;43.292;-2.888;2022-12-29T11:52:50;39.03;;;22.55;;
28848;SDS011;15981;43.292;-2.888;2022-12-29T11:55:18;42.15;;;21.15;;
28848;SDS011;15981;43.292;-2.888;2022-12-29T11:57:45;27.08;;;16.88;;
28848;SDS011;15981;43.292;-2.888;2022-12-29T12:00:14;29.60;;;16.88;;
28848;SDS011;15981;43.292;-2.888;2022-12-29T12:02:42;31.75;;;18.35;;
28848;SDS011;15981;43.292;-2.888;2022-12-29T12:08:03;31.00;;;18.50;;
28848;SDS011;15981;43.292;-2.888;2022-12-29T12:11:06;27.35;;;15.10;;
28848;SDS011;15981;43.292;-2.888;2022-12-29T12:15:51;25.10;;;16.25;;
28848;SDS011;15981;43.292;-2.888;2022-12-29T12:18:19;27.73;;;15.23;;
28848;SDS011;15981;43.292;-2.888;2022-12-29T12:25:59;24.40;;;14.18;;
28848;SDS011;15981;43.292;-2.888;2022-12-29T12:28:30;18.92;;;10.80;;
28848;SDS011;15981;43.292;-2.888;2022-12-29T12:30:58;20.13;;;10.32;;
28848;SDS011;15981;43.292;-2.888;2022-12-29T12:33:27;19.95;;;11.18;;
28848;SDS011;15981;43.292;-2.888;2022-12-29T12:41:07;17.00;;;9.32;;
28848;SDS011;15981;43.292;-2.888;2022-12-29T12:43:37;13.35;;;8.18;;
28848;SDS011;15981;43.292;-2.888;2022-12-29T12:51:21;410.40;;;265.63;;
28848;SDS011;15981;43.292;-2.888;2022-12-29T13:06:36;556.67;;;283.33;;
28848;SDS011;15981;43.292;-2.888;2022-12-29T13:09:15;486.90;;;248.45;;
28848;SDS011;15981;43.292;-2.888;2022-12-29T13:16:49;411.42;;;196.30;;
28848;SDS011;15981;43.292;-2.888;2022-12-29T13:19:37;382.67;;;183.68;;
28848;SDS011;15981;43.292;-2.888;2022-12-29T13:22:07;385.50;;;179.65;;
28848;SDS011;15981;43.292;-2.888;2022-12-29T13:27:05;402.15;;;190.07;;
28848;SDS011;15981;43.292;-2.888;2022-12-29T13:35:04;373.90;;;182.30;;
28848;SDS011;15981;43.292;-2.888;2022-12-29T13:37:36;369.67;;;172.38;;
28848;SDS011;15981;43.292;-2.888;2022-12-29T13:40:17;339.98;;;157.50;;
28848;SDS011;15981;43.292;-2.888;2022-12-29T13:42:44;358.88;;;171.75;;
28848;SDS011;15981;43.292;-2.888;2022-12-29T13:45:10;328.38;;;160.07;;
28848;SDS011;15981;43.292;-2.888;2022-12-29T13:50:05;311.95;;;152.60;;
28848;SDS011;15981;43.292;-2.888;2022-12-29T14:00:20;255.50;;;125.18;;
28848;SDS011;15981;43.292;-2.888;2022-12-29T14:07:44;250.25;;;124.00;;
28848;SDS011;15981;43.292;-2.888;2022-12-29T14:10:25;261.30;;;127.70;;
28848;SDS011;15981;43.292;-2.888;2022-12-29T14:12:56;238.63;;;117.20;;
28848;SDS011;15981;43.292;-2.888;2022-12-29T14:15:25;226.27;;;113.22;;
28848;SDS011;15981;43.292;-2.888;2022-12-29T14:18:04;264.63;;;125.28;;
28848;SDS011;15981;43.292;-2.888;2022-12-29T14:20:31;248.20;;;119.65;;
28848;SDS011;15981;43.292;-2.888;2022-12-29T14:23:01;251.82;;;123.18;;
28848;SDS011;15981;43.292;-2.888;2022-12-29T14:28:37;234.88;;;114.15;;
28848;SDS011;15981;43.292;-2.888;2022-12-29T14:31:04;220.45;;;113.07;;
28848;SDS011;15981;43.292;-2.888;2022-12-29T14:33:31;220.80;;;109.88;;
28848;SDS011;15981;43.292;-2.888;2022-12-29T14:35:58;219.52;;;108.18;;
28848;SDS011;15981;43.292;-2.888;2022-12-29T14:38:46;217.95;;;107.78;;
28848;SDS011;15981;43.292;-2.888;2022-12-29T14:41:17;213.50;;;104.72;;
28848;SDS011;15981;43.292;-2.888;2022-12-29T14:44:29;212.57;;;106.13;;
28848;SDS011;15981;43.292;-2.888;2022-12-29T14:46:49;210.32;;;103.13;;
28848;SDS011;15981;43.292;-2.888;2022-12-29T14:49:22;188.20;;;95.68;;
28848;SDS011;15981;43.292;-2.888;2022-12-29T14:51:50;189.18;;;94.93;;
28848;SDS011;15981;43.292;-2.888;2022-12-29T14:57:02;192.10;;;94.63;;
28848;SDS011;15981;43.292;-2.888;2022-12-29T14:59:28;179.30;;;91.30;;
28848;SDS011;15981;43.292;-2.888;2022-12-29T15:01:55;176.27;;;86.05;;
28848;SDS011;15981;43.292;-2.888;2022-12-29T15:04:22;161.55;;;82.30;;
28848;SDS011;15981;43.292;-2.888;2022-12-29T15:06:50;158.85;;;79.65;;
28848;SDS011;15981;43.292;-2.888;2022-12-29T15:09:23;159.15;;;78.90;;
28848;SDS011;15981;43.292;-2.888;2022-12-29T15:11:53;160.88;;;74.75;;
28848;SDS011;15981;43.292;-2.888;2022-12-29T15:14:27;146.18;;;74.25;;
28848;SDS011;15981;43.292;-2.888;2022-12-29T15:16:53;149.82;;;74.03;;
28848;SDS011;15981;43.292;-2.888;2022-12-29T15:19:22;140.00;;;71.90;;
28848;SDS011;15981;43.292;-2.888;2022-12-29T15:21:48;143.70;;;69.43;;
28848;SDS011;15981;43.292;-2.888;2022-12-29T15:24:14;136.48;;;67.63;;
28848;SDS011;15981;43.292;-2.888;2022-12-29T15:26:42;133.35;;;65.60;;
28848;SDS011;15981;43.292;-2.888;2022-12-29T15:31:52;127.88;;;62.30;;
28848;SDS011;15981;43.292;-2.888;2022-12-29T15:34:20;117.70;;;58.50;;
28848;SDS011;15981;43.292;-2.888;2022-12-29T15:36:46;119.97;;;58.95;;
28848;SDS011;15981;43.292;-2.888;2022-12-29T15:39:23;118.13;;;58.35;;
28848;SDS011;15981;43.292;-2.888;2022-12-29T15:41:53;106.50;;;55.08;;
28848;SDS011;15981;43.292;-2.888;2022-12-29T15:44:40;105.50;;;54.42;;
28848;SDS011;15981;43.292;-2.888;2022-12-29T15:47:26;115.05;;;52.50;;
28848;SDS011;15981;43.292;-2.888;2022-12-29T15:50:02;107.32;;;51.65;;
28848;SDS011;15981;43.292;-2.888;2022-12-29T15:52:30;113.65;;;52.08;;
28848;SDS011;15981;43.292;-2.888;2022-12-29T15:54:56;95.80;;;50.38;;
28848;SDS011;15981;43.292;-2.888;2022-12-29T15:57:27;105.32;;;49.42;;
28848;SDS011;15981;43.292;-2.888;2022-12-29T15:59:53;102.15;;;49.78;;
28848;SDS011;15981;43.292;-2.888;2022-12-29T16:02:20;92.10;;;45.50;;
28848;SDS011;15981;43.292;-2.888;2022-12-29T16:04:47;91.90;;;47.03;;
28848;SDS011;15981;43.292;-2.888;2022-12-29T16:09:55;84.07;;;42.60;;
28848;SDS011;15981;43.292;-2.888;2022-12-29T16:12:22;84.43;;;42.75;;
28848;SDS011;15981;43.292;-2.888;2022-12-29T16:14:54;80.18;;;41.15;;
28848;SDS011;15981;43.292;-2.888;2022-12-29T16:17:22;78.45;;;40.20;;
28848;SDS011;15981;43.292;-2.888;2022-12-29T16:19:49;74.63;;;39.58;;
28848;SDS011;15981;43.292;-2.888;2022-12-29T16:22:25;74.05;;;38.70;;
28848;SDS011;15981;43.292;-2.888;2022-12-29T16:24:54;74.43;;;37.25;;
28848;SDS011;15981;43.292;-2.888;2022-12-29T16:27:54;69.40;;;36.45;;
28848;SDS011;15981;43.292;-2.888;2022-12-29T16:30:22;72.20;;;35.78;;
28848;SDS011;15981;43.292;-2.888;2022-12-29T16:32:50;69.90;;;35.00;;
28848;SDS011;15981;43.292;-2.888;2022-12-29T16:35:17;66.35;;;33.20;;
28848;SDS011;15981;43.292;-2.888;2022-12-29T16:37:43;61.55;;;32.58;;
28848;SDS011;15981;43.292;-2.888;2022-12-29T16:40:28;60.03;;;32.58;;
28848;SDS011;15981;43.292;-2.888;2022-12-29T16:42:58;63.70;;;31.23;;
28848;SDS011;15981;43.292;-2.888;2022-12-29T16:48:16;57.20;;;29.98;;
28848;SDS011;15981;43.292;-2.888;2022-12-29T16:50:43;58.25;;;30.92;;